sensor_id;sensor_type;location;lat;lon;timestamp;temperature;humidity
65598;SHT31;52267;51.984;20.956;2024-02-14T00:00:26;5.86;77.80
65598;SHT31;52267;51.984;20.956;2024-02-14T00:03:13;5.86;77.83
65598;SHT31;52267;51.984;20.956;2024-02-14T00:05:43;5.87;77.89
65598;SHT31;52267;51.984;20.956;2024-02-14T00:08:11;5.89;77.90
65598;SHT31;52267;51.984;20.956;2024-02-14T00:10:39;5.92;77.84
65598;SHT31;52267;51.984;20.956;2024-02-14T00:13:06;5.93;77.89
65598;SHT31;52267;51.984;20.956;2024-02-14T00:15:35;5.92;77.89
65598;SHT31;52267;51.984;20.956;2024-02-14T00:18:02;5.90;77.90
65598;SHT31;52267;51.984;20.956;2024-02-14T00:20:29;5.90;77.95
65598;SHT31;52267;51.984;20.956;2024-02-14T00:22:56;5.90;77.97
65598;SHT31;52267;51.984;20.956;2024-02-14T00:25:23;5.88;77.99
65598;SHT31;52267;51.984;20.956;2024-02-14T00:27:50;5.84;78.06
65598;SHT31;52267;51.984;20.956;2024-02-14T00:30:17;5.83;78.11
65598;SHT31;52267;51.984;20.956;2024-02-14T00:32:44;5.85;78.10
65598;SHT31;52267;51.984;20.956;2024-02-14T00:35:11;5.82;78.17
65598;SHT31;52267;51.984;20.956;2024-02-14T00:37:38;5.80;78.20
65598;SHT31;52267;51.984;20.956;2024-02-14T00:40:05;5.80;78.25
65598;SHT31;52267;51.984;20.956;2024-02-14T00:42:33;5.77;78.32
65598;SHT31;52267;51.984;20.956;2024-02-14T00:45:00;5.77;78.36
65598;SHT31;52267;51.984;20.956;2024-02-14T00:47:27;5.78;78.33
65598;SHT31;52267;51.984;20.956;2024-02-14T00:49:54;5.76;78.39
65598;SHT31;52267;51.984;20.956;2024-02-14T00:52:21;5.77;78.38
65598;SHT31;52267;51.984;20.956;2024-02-14T00:54:48;5.79;78.38
65598;SHT31;52267;51.984;20.956;2024-02-14T00:57:15;5.76;78.41
65598;SHT31;52267;51.984;20.956;2024-02-14T00:59:44;5.78;78.50
65598;SHT31;52267;51.984;20.956;2024-02-14T01:02:11;5.82;78.44
65598;SHT31;52267;51.984;20.956;2024-02-14T01:04:38;5.83;78.39
65598;SHT31;52267;51.984;20.956;2024-02-14T01:07:05;5.83;78.40
65598;SHT31;52267;51.984;20.956;2024-02-14T01:09:32;5.78;78.47
65598;SHT31;52267;51.984;20.956;2024-02-14T01:11:59;5.77;78.51
65598;SHT31;52267;51.984;20.956;2024-02-14T01:14:26;5.78;78.52
65598;SHT31;52267;51.984;20.956;2024-02-14T01:16:53;5.78;78.54
65598;SHT31;52267;51.984;20.956;2024-02-14T01:19:23;5.77;78.60
65598;SHT31;52267;51.984;20.956;2024-02-14T01:21:55;5.81;78.59
65598;SHT31;52267;51.984;20.956;2024-02-14T01:24:23;5.82;78.50
65598;SHT31;52267;51.984;20.956;2024-02-14T01:26:53;5.82;78.52
65598;SHT31;52267;51.984;20.956;2024-02-14T01:29:21;5.79;78.60
65598;SHT31;52267;51.984;20.956;2024-02-14T01:31:49;5.84;78.54
65598;SHT31;52267;51.984;20.956;2024-02-14T01:34:17;5.83;78.58
65598;SHT31;52267;51.984;20.956;2024-02-14T01:36:44;5.83;78.61
65598;SHT31;52267;51.984;20.956;2024-02-14T01:39:12;5.82;78.69
65598;SHT31;52267;51.984;20.956;2024-02-14T01:41:46;5.83;78.63
65598;SHT31;52267;51.984;20.956;2024-02-14T01:44:17;5.82;78.50
65598;SHT31;52267;51.984;20.956;2024-02-14T01:46:44;5.71;78.67
65598;SHT31;52267;51.984;20.956;2024-02-14T01:49:11;5.59;78.74
65598;SHT31;52267;51.984;20.956;2024-02-14T01:51:40;5.47;78.92
65598;SHT31;52267;51.984;20.956;2024-02-14T01:54:11;5.39;79.04
65598;SHT31;52267;51.984;20.956;2024-02-14T01:56:39;5.29;79.15
65598;SHT31;52267;51.984;20.956;2024-02-14T01:59:06;5.19;79.29
65598;SHT31;52267;51.984;20.956;2024-02-14T02:01:35;5.11;79.46
65598;SHT31;52267;51.984;20.956;2024-02-14T02:04:03;5.14;79.33
65598;SHT31;52267;51.984;20.956;2024-02-14T02:06:30;5.14;79.16
65598;SHT31;52267;51.984;20.956;2024-02-14T02:08:59;4.97;79.03
65598;SHT31;52267;51.984;20.956;2024-02-14T02:11:26;4.72;79.36
65598;SHT31;52267;51.984;20.956;2024-02-14T02:13:53;4.63;79.60
65598;SHT31;52267;51.984;20.956;2024-02-14T02:16:21;4.53;79.60
65598;SHT31;52267;51.984;20.956;2024-02-14T02:18:48;4.41;79.65
65598;SHT31;52267;51.984;20.956;2024-02-14T02:21:16;4.32;79.65
65598;SHT31;52267;51.984;20.956;2024-02-14T02:23:46;4.17;79.75
65598;SHT31;52267;51.984;20.956;2024-02-14T02:26:13;3.99;80.01
65598;SHT31;52267;51.984;20.956;2024-02-14T02:28:40;3.79;80.31
65598;SHT31;52267;51.984;20.956;2024-02-14T02:31:08;3.67;80.58
65598;SHT31;52267;51.984;20.956;2024-02-14T02:33:35;3.58;80.67
65598;SHT31;52267;51.984;20.956;2024-02-14T02:36:02;3.46;80.75
65598;SHT31;52267;51.984;20.956;2024-02-14T02:38:30;3.36;80.86
65598;SHT31;52267;51.984;20.956;2024-02-14T02:40:57;3.26;81.04
65598;SHT31;52267;51.984;20.956;2024-02-14T02:43:24;3.16;81.22
65598;SHT31;52267;51.984;20.956;2024-02-14T02:45:51;3.03;81.43
65598;SHT31;52267;51.984;20.956;2024-02-14T02:48:18;2.91;81.59
65598;SHT31;52267;51.984;20.956;2024-02-14T02:50:49;2.76;81.89
65598;SHT31;52267;51.984;20.956;2024-02-14T02:53:17;2.66;81.93
65598;SHT31;52267;51.984;20.956;2024-02-14T02:55:45;2.58;81.89
65598;SHT31;52267;51.984;20.956;2024-02-14T02:58:12;2.51;81.93
65598;SHT31;52267;51.984;20.956;2024-02-14T03:00:40;2.41;82.03
65598;SHT31;52267;51.984;20.956;2024-02-14T03:03:07;2.36;82.12
65598;SHT31;52267;51.984;20.956;2024-02-14T03:05:35;2.34;82.01
65598;SHT31;52267;51.984;20.956;2024-02-14T03:08:02;2.23;81.99
65598;SHT31;52267;51.984;20.956;2024-02-14T03:10:29;2.21;82.03
65598;SHT31;52267;51.984;20.956;2024-02-14T03:12:57;2.17;81.90
65598;SHT31;52267;51.984;20.956;2024-02-14T03:15:24;2.11;81.91
65598;SHT31;52267;51.984;20.956;2024-02-14T03:17:52;2.06;81.90
65598;SHT31;52267;51.984;20.956;2024-02-14T03:20:19;2.07;81.90
65598;SHT31;52267;51.984;20.956;2024-02-14T03:22:46;2.05;81.80
65598;SHT31;52267;51.984;20.956;2024-02-14T03:25:17;2.01;81.77
65598;SHT31;52267;51.984;20.956;2024-02-14T03:27:45;1.93;81.80
65598;SHT31;52267;51.984;20.956;2024-02-14T03:30:15;1.85;81.90
65598;SHT31;52267;51.984;20.956;2024-02-14T03:32:43;1.85;81.92
65598;SHT31;52267;51.984;20.956;2024-02-14T03:35:10;1.81;81.80
65598;SHT31;52267;51.984;20.956;2024-02-14T03:37:42;1.70;81.97
65598;SHT31;52267;51.984;20.956;2024-02-14T03:40:15;1.61;82.20
65598;SHT31;52267;51.984;20.956;2024-02-14T03:42:42;1.60;82.19
65598;SHT31;52267;51.984;20.956;2024-02-14T03:45:09;1.59;82.14
65598;SHT31;52267;51.984;20.956;2024-02-14T03:47:36;1.54;82.07
65598;SHT31;52267;51.984;20.956;2024-02-14T03:50:06;1.56;82.04
65598;SHT31;52267;51.984;20.956;2024-02-14T03:52:36;1.56;81.92
65598;SHT31;52267;51.984;20.956;2024-02-14T03:55:04;1.53;81.94
65598;SHT31;52267;51.984;20.956;2024-02-14T03:57:32;1.46;82.07
65598;SHT31;52267;51.984;20.956;2024-02-14T04:00:01;1.36;82.14
65598;SHT31;52267;51.984;20.956;2024-02-14T04:02:29;1.28;82.33
65598;SHT31;52267;51.984;20.956;2024-02-14T04:04:56;1.20;82.55
65598;SHT31;52267;51.984;20.956;2024-02-14T04:07:23;1.13;82.66
65598;SHT31;52267;51.984;20.956;2024-02-14T04:09:50;1.12;82.73
65598;SHT31;52267;51.984;20.956;2024-02-14T04:12:17;1.13;82.69
65598;SHT31;52267;51.984;20.956;2024-02-14T04:14:44;1.09;82.72
65598;SHT31;52267;51.984;20.956;2024-02-14T04:17:11;1.07;82.76
65598;SHT31;52267;51.984;20.956;2024-02-14T04:19:39;1.13;82.69
65598;SHT31;52267;51.984;20.956;2024-02-14T04:22:06;1.17;82.66
65598;SHT31;52267;51.984;20.956;2024-02-14T04:24:34;1.16;82.58
65598;SHT31;52267;51.984;20.956;2024-02-14T04:27:01;1.13;82.64
65598;SHT31;52267;51.984;20.956;2024-02-14T04:29:32;1.16;82.59
65598;SHT31;52267;51.984;20.956;2024-02-14T04:32:00;1.16;82.52
65598;SHT31;52267;51.984;20.956;2024-02-14T04:34:27;1.17;82.54
65598;SHT31;52267;51.984;20.956;2024-02-14T04:36:54;1.14;82.68
65598;SHT31;52267;51.984;20.956;2024-02-14T04:39:21;1.09;82.87
65598;SHT31;52267;51.984;20.956;2024-02-14T04:41:48;1.11;83.03
65598;SHT31;52267;51.984;20.956;2024-02-14T04:44:16;1.14;83.14
65598;SHT31;52267;51.984;20.956;2024-02-14T04:46:43;1.19;83.17
65598;SHT31;52267;51.984;20.956;2024-02-14T04:49:11;1.19;83.28
65598;SHT31;52267;51.984;20.956;2024-02-14T04:51:38;1.24;83.28
65598;SHT31;52267;51.984;20.956;2024-02-14T04:54:05;1.31;83.27
65598;SHT31;52267;51.984;20.956;2024-02-14T04:56:32;1.37;83.22
65598;SHT31;52267;51.984;20.956;2024-02-14T04:58:59;1.42;83.25
65598;SHT31;52267;51.984;20.956;2024-02-14T05:01:26;1.47;83.31
65598;SHT31;52267;51.984;20.956;2024-02-14T05:03:53;1.54;83.30
65598;SHT31;52267;51.984;20.956;2024-02-14T05:06:20;1.63;83.27
65598;SHT31;52267;51.984;20.956;2024-02-14T05:08:48;1.70;83.15
65598;SHT31;52267;51.984;20.956;2024-02-14T05:11:15;1.69;83.24
65598;SHT31;52267;51.984;20.956;2024-02-14T05:13:42;1.66;83.42
65598;SHT31;52267;51.984;20.956;2024-02-14T05:16:10;1.69;83.56
65598;SHT31;52267;51.984;20.956;2024-02-14T05:18:37;1.70;83.63
65598;SHT31;52267;51.984;20.956;2024-02-14T05:21:06;1.75;83.63
65598;SHT31;52267;51.984;20.956;2024-02-14T05:23:34;1.80;83.59
65598;SHT31;52267;51.984;20.956;2024-02-14T05:26:04;1.83;83.49
65598;SHT31;52267;51.984;20.956;2024-02-14T05:28:32;1.82;83.45
65598;SHT31;52267;51.984;20.956;2024-02-14T05:30:59;1.77;83.56
65598;SHT31;52267;51.984;20.956;2024-02-14T05:33:26;1.74;83.63
65598;SHT31;52267;51.984;20.956;2024-02-14T05:35:54;1.71;83.72
65598;SHT31;52267;51.984;20.956;2024-02-14T05:38:21;1.67;83.79
65598;SHT31;52267;51.984;20.956;2024-02-14T05:40:48;1.62;83.84
65598;SHT31;52267;51.984;20.956;2024-02-14T05:43:15;1.63;83.80
65598;SHT31;52267;51.984;20.956;2024-02-14T05:45:45;1.65;83.70
65598;SHT31;52267;51.984;20.956;2024-02-14T05:48:12;1.62;83.66
65598;SHT31;52267;51.984;20.956;2024-02-14T05:50:41;1.54;83.69
65598;SHT31;52267;51.984;20.956;2024-02-14T05:53:08;1.51;83.75
65598;SHT31;52267;51.984;20.956;2024-02-14T05:55:35;1.45;83.78
65598;SHT31;52267;51.984;20.956;2024-02-14T05:58:02;1.38;83.93
65598;SHT31;52267;51.984;20.956;2024-02-14T06:00:29;1.34;84.00
65598;SHT31;52267;51.984;20.956;2024-02-14T06:02:56;1.29;84.00
65598;SHT31;52267;51.984;20.956;2024-02-14T06:05:23;1.23;84.06
65598;SHT31;52267;51.984;20.956;2024-02-14T06:07:50;1.26;84.10
65598;SHT31;52267;51.984;20.956;2024-02-14T06:10:18;1.29;84.02
65598;SHT31;52267;51.984;20.956;2024-02-14T06:12:45;1.33;83.96
65598;SHT31;52267;51.984;20.956;2024-02-14T06:15:14;1.36;83.82
65598;SHT31;52267;51.984;20.956;2024-02-14T06:17:42;1.40;83.76
65598;SHT31;52267;51.984;20.956;2024-02-14T06:20:09;1.42;83.70
65598;SHT31;52267;51.984;20.956;2024-02-14T06:22:36;1.42;83.66
65598;SHT31;52267;51.984;20.956;2024-02-14T06:25:04;1.40;83.70
65598;SHT31;52267;51.984;20.956;2024-02-14T06:27:31;1.34;83.79
65598;SHT31;52267;51.984;20.956;2024-02-14T06:29:59;1.33;83.90
65598;SHT31;52267;51.984;20.956;2024-02-14T06:32:26;1.32;83.99
65598;SHT31;52267;51.984;20.956;2024-02-14T06:34:53;1.34;84.00
65598;SHT31;52267;51.984;20.956;2024-02-14T06:37:20;1.41;83.91
65598;SHT31;52267;51.984;20.956;2024-02-14T06:39:47;1.47;83.73
65598;SHT31;52267;51.984;20.956;2024-02-14T06:42:15;1.49;83.58
65598;SHT31;52267;51.984;20.956;2024-02-14T06:44:43;1.53;83.50
65598;SHT31;52267;51.984;20.956;2024-02-14T06:47:10;1.58;83.32
65598;SHT31;52267;51.984;20.956;2024-02-14T06:49:37;1.58;83.32
65598;SHT31;52267;51.984;20.956;2024-02-14T06:52:04;1.58;83.46
65598;SHT31;52267;51.984;20.956;2024-02-14T06:54:32;1.56;83.68
65598;SHT31;52267;51.984;20.956;2024-02-14T06:56:59;1.58;84.11
65598;SHT31;52267;51.984;20.956;2024-02-14T06:59:26;1.62;84.85
65598;SHT31;52267;51.984;20.956;2024-02-14T07:01:53;1.66;85.57
65598;SHT31;52267;51.984;20.956;2024-02-14T07:04:21;1.72;85.64
65598;SHT31;52267;51.984;20.956;2024-02-14T07:06:52;1.81;85.97
65598;SHT31;52267;51.984;20.956;2024-02-14T07:09:20;1.90;85.99
65598;SHT31;52267;51.984;20.956;2024-02-14T07:11:47;2.05;86.14
65598;SHT31;52267;51.984;20.956;2024-02-14T07:14:14;2.19;85.70
65598;SHT31;52267;51.984;20.956;2024-02-14T07:16:41;2.33;85.20
65598;SHT31;52267;51.984;20.956;2024-02-14T07:19:08;2.45;85.34
65598;SHT31;52267;51.984;20.956;2024-02-14T07:21:35;2.51;85.81
65598;SHT31;52267;51.984;20.956;2024-02-14T07:24:04;2.61;85.80
65598;SHT31;52267;51.984;20.956;2024-02-14T07:26:32;2.71;85.57
65598;SHT31;52267;51.984;20.956;2024-02-14T07:28:59;2.84;85.28
65598;SHT31;52267;51.984;20.956;2024-02-14T07:31:28;2.96;85.04
65598;SHT31;52267;51.984;20.956;2024-02-14T07:33:57;3.05;84.91
65598;SHT31;52267;51.984;20.956;2024-02-14T07:36:25;3.14;84.91
65598;SHT31;52267;51.984;20.956;2024-02-14T07:38:52;3.24;84.93
65598;SHT31;52267;51.984;20.956;2024-02-14T07:41:19;3.34;84.48
65598;SHT31;52267;51.984;20.956;2024-02-14T07:43:46;3.43;84.18
65598;SHT31;52267;51.984;20.956;2024-02-14T07:46:18;3.53;84.13
65598;SHT31;52267;51.984;20.956;2024-02-14T07:48:46;3.62;83.91
65598;SHT31;52267;51.984;20.956;2024-02-14T07:51:13;3.67;83.89
65598;SHT31;52267;51.984;20.956;2024-02-14T07:53:40;3.73;83.95
65598;SHT31;52267;51.984;20.956;2024-02-14T07:56:07;3.81;83.87
65598;SHT31;52267;51.984;20.956;2024-02-14T07:58:34;3.87;83.84
65598;SHT31;52267;51.984;20.956;2024-02-14T08:01:01;3.95;83.69
65598;SHT31;52267;51.984;20.956;2024-02-14T08:03:30;4.03;83.56
65598;SHT31;52267;51.984;20.956;2024-02-14T08:05:57;4.15;83.40
65598;SHT31;52267;51.984;20.956;2024-02-14T08:08:25;4.29;83.24
65598;SHT31;52267;51.984;20.956;2024-02-14T08:10:53;4.42;83.18
65598;SHT31;52267;51.984;20.956;2024-02-14T08:13:21;4.55;83.04
65598;SHT31;52267;51.984;20.956;2024-02-14T08:15:48;4.65;82.84
65598;SHT31;52267;51.984;20.956;2024-02-14T08:18:16;4.82;82.70
65598;SHT31;52267;51.984;20.956;2024-02-14T08:20:43;5.00;82.34
65598;SHT31;52267;51.984;20.956;2024-02-14T08:23:10;5.17;82.13
65598;SHT31;52267;51.984;20.956;2024-02-14T08:25:37;5.31;81.47
65598;SHT31;52267;51.984;20.956;2024-02-14T08:28:04;5.43;81.35
65598;SHT31;52267;51.984;20.956;2024-02-14T08:30:34;5.51;81.22
65598;SHT31;52267;51.984;20.956;2024-02-14T08:33:01;5.55;80.55
65598;SHT31;52267;51.984;20.956;2024-02-14T08:35:28;5.63;80.40
65598;SHT31;52267;51.984;20.956;2024-02-14T08:37:55;5.69;80.55
65598;SHT31;52267;51.984;20.956;2024-02-14T08:40:22;5.79;80.68
65598;SHT31;52267;51.984;20.956;2024-02-14T08:42:49;5.82;79.35
65598;SHT31;52267;51.984;20.956;2024-02-14T08:45:16;5.92;80.06
65598;SHT31;52267;51.984;20.956;2024-02-14T08:47:43;6.00;80.15
65598;SHT31;52267;51.984;20.956;2024-02-14T08:50:11;6.07;80.02
65598;SHT31;52267;51.984;20.956;2024-02-14T08:52:38;6.14;80.26
65598;SHT31;52267;51.984;20.956;2024-02-14T08:55:05;6.20;80.09
65598;SHT31;52267;51.984;20.956;2024-02-14T08:57:35;6.30;80.17
65598;SHT31;52267;51.984;20.956;2024-02-14T09:00:02;6.39;79.45
65598;SHT31;52267;51.984;20.956;2024-02-14T09:02:31;6.46;77.84
65598;SHT31;52267;51.984;20.956;2024-02-14T09:04:57;6.58;77.90
65598;SHT31;52267;51.984;20.956;2024-02-14T09:07:24;6.71;78.37
65598;SHT31;52267;51.984;20.956;2024-02-14T09:09:51;6.79;75.26
65598;SHT31;52267;51.984;20.956;2024-02-14T09:12:19;6.91;76.57
65598;SHT31;52267;51.984;20.956;2024-02-14T09:14:46;7.03;77.76
65598;SHT31;52267;51.984;20.956;2024-02-14T09:17:13;7.11;74.81
65598;SHT31;52267;51.984;20.956;2024-02-14T09:19:41;7.21;75.84
65598;SHT31;52267;51.984;20.956;2024-02-14T09:22:09;7.26;72.78
65598;SHT31;52267;51.984;20.956;2024-02-14T09:24:36;7.30;71.29
65598;SHT31;52267;51.984;20.956;2024-02-14T09:27:03;7.37;71.86
65598;SHT31;52267;51.984;20.956;2024-02-14T09:29:32;7.45;71.01
65598;SHT31;52267;51.984;20.956;2024-02-14T09:32:00;7.53;70.51
65598;SHT31;52267;51.984;20.956;2024-02-14T09:34:27;7.62;69.12
65598;SHT31;52267;51.984;20.956;2024-02-14T09:36:54;7.74;71.41
65598;SHT31;52267;51.984;20.956;2024-02-14T09:39:23;7.87;71.45
65598;SHT31;52267;51.984;20.956;2024-02-14T09:41:59;7.87;68.29
65598;SHT31;52267;51.984;20.956;2024-02-14T09:44:28;7.90;68.19
65598;SHT31;52267;51.984;20.956;2024-02-14T09:46:56;8.03;70.87
65598;SHT31;52267;51.984;20.956;2024-02-14T09:49:23;8.11;69.02
65598;SHT31;52267;51.984;20.956;2024-02-14T09:51:51;8.24;68.54
65598;SHT31;52267;51.984;20.956;2024-02-14T09:54:19;8.34;69.22
65598;SHT31;52267;51.984;20.956;2024-02-14T09:56:52;8.44;70.33
65598;SHT31;52267;51.984;20.956;2024-02-14T09:59:21;8.51;68.49
65598;SHT31;52267;51.984;20.956;2024-02-14T10:01:49;8.59;70.13
65598;SHT31;52267;51.984;20.956;2024-02-14T10:04:18;8.62;69.85
65598;SHT31;52267;51.984;20.956;2024-02-14T10:06:45;8.66;69.27
65598;SHT31;52267;51.984;20.956;2024-02-14T10:09:12;8.77;68.96
65598;SHT31;52267;51.984;20.956;2024-02-14T10:11:39;8.82;68.51
65598;SHT31;52267;51.984;20.956;2024-02-14T10:14:07;8.86;67.45
65598;SHT31;52267;51.984;20.956;2024-02-14T10:16:36;8.89;66.57
65598;SHT31;52267;51.984;20.956;2024-02-14T10:19:03;8.94;66.70
65598;SHT31;52267;51.984;20.956;2024-02-14T10:21:30;9.05;65.55
65598;SHT31;52267;51.984;20.956;2024-02-14T10:24:00;9.19;65.62
65598;SHT31;52267;51.984;20.956;2024-02-14T10:26:30;9.26;66.67
65598;SHT31;52267;51.984;20.956;2024-02-14T10:28:57;9.21;65.58
65598;SHT31;52267;51.984;20.956;2024-02-14T10:31:25;9.24;65.92
65598;SHT31;52267;51.984;20.956;2024-02-14T10:33:53;9.18;64.40
65598;SHT31;52267;51.984;20.956;2024-02-14T10:36:22;9.17;63.86
65598;SHT31;52267;51.984;20.956;2024-02-14T10:38:50;9.24;64.23
65598;SHT31;52267;51.984;20.956;2024-02-14T10:41:17;9.28;64.36
65598;SHT31;52267;51.984;20.956;2024-02-14T10:43:44;9.33;64.76
65598;SHT31;52267;51.984;20.956;2024-02-14T10:46:29;9.41;62.33
65598;SHT31;52267;51.984;20.956;2024-02-14T10:49:03;9.57;62.63
65598;SHT31;52267;51.984;20.956;2024-02-14T10:51:32;9.68;63.03
65598;SHT31;52267;51.984;20.956;2024-02-14T10:54:07;9.78;63.34
65598;SHT31;52267;51.984;20.956;2024-02-14T10:56:38;9.81;62.18
65598;SHT31;52267;51.984;20.956;2024-02-14T10:59:09;9.77;62.42
65598;SHT31;52267;51.984;20.956;2024-02-14T11:01:41;9.67;62.21
65598;SHT31;52267;51.984;20.956;2024-02-14T11:04:09;9.69;62.94
65598;SHT31;52267;51.984;20.956;2024-02-14T11:06:51;9.68;61.74
65598;SHT31;52267;51.984;20.956;2024-02-14T11:09:21;9.67;61.51
65598;SHT31;52267;51.984;20.956;2024-02-14T11:11:48;9.65;60.61
65598;SHT31;52267;51.984;20.956;2024-02-14T11:14:15;9.56;59.95
65598;SHT31;52267;51.984;20.956;2024-02-14T11:16:45;9.64;60.77
65598;SHT31;52267;51.984;20.956;2024-02-14T11:19:13;9.72;61.55
65598;SHT31;52267;51.984;20.956;2024-02-14T11:21:44;9.74;60.78
65598;SHT31;52267;51.984;20.956;2024-02-14T11:24:13;9.73;60.84
65598;SHT31;52267;51.984;20.956;2024-02-14T11:26:48;9.72;60.85
65598;SHT31;52267;51.984;20.956;2024-02-14T11:29:20;9.68;58.98
65598;SHT31;52267;51.984;20.956;2024-02-14T11:32:01;9.65;59.57
65598;SHT31;52267;51.984;20.956;2024-02-14T11:34:29;9.60;58.85
65598;SHT31;52267;51.984;20.956;2024-02-14T11:36:59;9.59;58.94
65598;SHT31;52267;51.984;20.956;2024-02-14T11:39:26;9.60;58.79
65598;SHT31;52267;51.984;20.956;2024-02-14T11:41:56;9.68;59.23
65598;SHT31;52267;51.984;20.956;2024-02-14T11:44:25;9.73;59.59
65598;SHT31;52267;51.984;20.956;2024-02-14T11:46:52;9.69;55.42
65598;SHT31;52267;51.984;20.956;2024-02-14T11:49:20;9.81;57.95
65598;SHT31;52267;51.984;20.956;2024-02-14T11:51:47;9.90;57.88
65598;SHT31;52267;51.984;20.956;2024-02-14T11:54:15;9.99;58.13
65598;SHT31;52267;51.984;20.956;2024-02-14T11:56:42;10.00;55.52
65598;SHT31;52267;51.984;20.956;2024-02-14T11:59:09;9.93;54.89
65598;SHT31;52267;51.984;20.956;2024-02-14T12:01:37;9.92;54.19
65598;SHT31;52267;51.984;20.956;2024-02-14T12:04:06;9.91;54.80
65598;SHT31;52267;51.984;20.956;2024-02-14T12:06:35;9.90;54.19
65598;SHT31;52267;51.984;20.956;2024-02-14T12:09:03;9.95;55.32
65598;SHT31;52267;51.984;20.956;2024-02-14T12:11:32;10.03;55.35
65598;SHT31;52267;51.984;20.956;2024-02-14T12:14:03;10.10;55.58
65598;SHT31;52267;51.984;20.956;2024-02-14T12:16:33;10.15;54.52
65598;SHT31;52267;51.984;20.956;2024-02-14T12:19:06;10.06;53.91
65598;SHT31;52267;51.984;20.956;2024-02-14T12:21:36;10.15;54.64
65598;SHT31;52267;51.984;20.956;2024-02-14T12:24:06;10.22;54.73
65598;SHT31;52267;51.984;20.956;2024-02-14T12:26:37;10.27;54.36
65598;SHT31;52267;51.984;20.956;2024-02-14T12:29:05;10.31;55.37
65598;SHT31;52267;51.984;20.956;2024-02-14T12:31:34;10.33;54.74
65598;SHT31;52267;51.984;20.956;2024-02-14T12:34:03;10.35;54.43
65598;SHT31;52267;51.984;20.956;2024-02-14T12:36:33;10.44;55.65
65598;SHT31;52267;51.984;20.956;2024-02-14T12:39:01;10.42;54.72
65598;SHT31;52267;51.984;20.956;2024-02-14T12:41:29;10.43;54.73
65598;SHT31;52267;51.984;20.956;2024-02-14T12:43:58;10.44;55.89
65598;SHT31;52267;51.984;20.956;2024-02-14T12:46:26;10.47;55.80
65598;SHT31;52267;51.984;20.956;2024-02-14T12:48:54;10.51;55.43
65598;SHT31;52267;51.984;20.956;2024-02-14T12:51:21;10.55;55.95
65598;SHT31;52267;51.984;20.956;2024-02-14T12:53:48;10.58;55.75
65598;SHT31;52267;51.984;20.956;2024-02-14T12:56:15;10.46;54.11
65598;SHT31;52267;51.984;20.956;2024-02-14T12:58:43;10.45;54.99
65598;SHT31;52267;51.984;20.956;2024-02-14T13:01:11;10.47;54.76
65598;SHT31;52267;51.984;20.956;2024-02-14T13:03:38;10.40;55.24
65598;SHT31;52267;51.984;20.956;2024-02-14T13:06:06;10.35;54.88
65598;SHT31;52267;51.984;20.956;2024-02-14T13:08:33;10.37;56.05
65598;SHT31;52267;51.984;20.956;2024-02-14T13:11:00;10.34;55.31
65598;SHT31;52267;51.984;20.956;2024-02-14T13:13:27;10.28;55.30
65598;SHT31;52267;51.984;20.956;2024-02-14T13:15:56;10.24;53.91
65598;SHT31;52267;51.984;20.956;2024-02-14T13:18:23;10.21;55.63
65598;SHT31;52267;51.984;20.956;2024-02-14T13:20:51;10.13;54.68
65598;SHT31;52267;51.984;20.956;2024-02-14T13:23:23;10.06;55.15
65598;SHT31;52267;51.984;20.956;2024-02-14T13:25:51;10.02;54.65
65598;SHT31;52267;51.984;20.956;2024-02-14T13:28:18;9.90;53.98
65598;SHT31;52267;51.984;20.956;2024-02-14T13:30:45;9.76;53.30
65598;SHT31;52267;51.984;20.956;2024-02-14T13:33:15;9.74;54.72
65598;SHT31;52267;51.984;20.956;2024-02-14T13:35:43;9.76;55.46
65598;SHT31;52267;51.984;20.956;2024-02-14T13:38:10;9.74;55.33
65598;SHT31;52267;51.984;20.956;2024-02-14T13:40:37;9.60;53.34
65598;SHT31;52267;51.984;20.956;2024-02-14T13:43:04;9.54;54.67
65598;SHT31;52267;51.984;20.956;2024-02-14T13:45:39;9.53;55.54
65598;SHT31;52267;51.984;20.956;2024-02-14T13:48:11;9.45;54.65
65598;SHT31;52267;51.984;20.956;2024-02-14T13:50:39;9.37;54.92
65598;SHT31;52267;51.984;20.956;2024-02-14T13:53:06;9.35;55.60
65598;SHT31;52267;51.984;20.956;2024-02-14T13:55:33;9.31;54.97
65598;SHT31;52267;51.984;20.956;2024-02-14T13:58:01;9.29;55.69
65598;SHT31;52267;51.984;20.956;2024-02-14T14:00:28;9.26;56.24
65598;SHT31;52267;51.984;20.956;2024-02-14T14:02:55;9.22;55.68
65598;SHT31;52267;51.984;20.956;2024-02-14T14:05:22;9.19;56.29
65598;SHT31;52267;51.984;20.956;2024-02-14T14:07:49;9.18;56.03
65598;SHT31;52267;51.984;20.956;2024-02-14T14:10:17;9.13;55.37
65598;SHT31;52267;51.984;20.956;2024-02-14T14:12:44;9.14;56.17
65598;SHT31;52267;51.984;20.956;2024-02-14T14:15:11;9.11;55.36
65598;SHT31;52267;51.984;20.956;2024-02-14T14:17:38;9.04;55.14
65598;SHT31;52267;51.984;20.956;2024-02-14T14:20:05;9.07;56.49
65598;SHT31;52267;51.984;20.956;2024-02-14T14:22:34;9.14;56.61
65598;SHT31;52267;51.984;20.956;2024-02-14T14:25:02;9.16;56.47
65598;SHT31;52267;51.984;20.956;2024-02-14T14:27:31;9.16;57.07
65598;SHT31;52267;51.984;20.956;2024-02-14T14:29:58;9.21;57.55
65598;SHT31;52267;51.984;20.956;2024-02-14T14:32:25;9.27;57.65
65598;SHT31;52267;51.984;20.956;2024-02-14T14:34:52;9.30;57.56
65598;SHT31;52267;51.984;20.956;2024-02-14T14:37:19;9.34;57.64
65598;SHT31;52267;51.984;20.956;2024-02-14T14:39:46;9.37;57.81
65598;SHT31;52267;51.984;20.956;2024-02-14T14:42:14;9.41;57.60
65598;SHT31;52267;51.984;20.956;2024-02-14T14:44:41;9.42;57.36
65598;SHT31;52267;51.984;20.956;2024-02-14T14:47:08;9.38;56.11
65598;SHT31;52267;51.984;20.956;2024-02-14T14:49:37;9.37;57.15
65598;SHT31;52267;51.984;20.956;2024-02-14T14:52:05;9.38;57.20
65598;SHT31;52267;51.984;20.956;2024-02-14T14:54:32;9.35;56.61
65598;SHT31;52267;51.984;20.956;2024-02-14T14:56:59;9.32;57.31
65598;SHT31;52267;51.984;20.956;2024-02-14T14:59:30;9.26;57.44
65598;SHT31;52267;51.984;20.956;2024-02-14T15:01:57;9.14;57.11
65598;SHT31;52267;51.984;20.956;2024-02-14T15:04:24;9.05;57.86
65598;SHT31;52267;51.984;20.956;2024-02-14T15:06:51;8.93;57.27
65598;SHT31;52267;51.984;20.956;2024-02-14T15:09:19;8.77;56.72
65598;SHT31;52267;51.984;20.956;2024-02-14T15:11:46;8.64;57.60
65598;SHT31;52267;51.984;20.956;2024-02-14T15:14:13;8.51;57.56
65598;SHT31;52267;51.984;20.956;2024-02-14T15:16:41;8.42;58.19
65598;SHT31;52267;51.984;20.956;2024-02-14T15:19:08;8.35;58.33
65598;SHT31;52267;51.984;20.956;2024-02-14T15:21:35;8.27;58.85
65598;SHT31;52267;51.984;20.956;2024-02-14T15:24:03;8.17;58.11
65598;SHT31;52267;51.984;20.956;2024-02-14T15:26:30;8.05;58.37
65598;SHT31;52267;51.984;20.956;2024-02-14T15:29:05;7.99;59.22
65598;SHT31;52267;51.984;20.956;2024-02-14T15:31:50;7.91;59.57
65598;SHT31;52267;51.984;20.956;2024-02-14T15:34:36;7.85;60.03